Time;durP1;ratioP1;P1;durP2;ratioP2;P2;SDS_P1;SDS_P2;PMS_P1;PMS_P2;Temp;Humidity;BMP_temperature;BMP_pressure;BME280_temperature;BME280_humidity;BME280_pressure;Samples;Min_cycle;Max_cycle;Signal;HPM_P1;HPM_P2
2022/01/19 00:01:24;;;;;;;6.10;4.32;;;;;;;21.22;26.78;100744.16;5109823;28;20051;-61
2022/01/19 00:03:50;;;;;;;5.85;4.20;;;;;;;21.22;26.78;100744.16;5109807;28;20043;-61
2022/01/19 00:06:15;;;;;;;6.25;4.40;;;;;;;21.20;27.05;100731.75;5109830;28;20046;-61
2022/01/19 00:08:41;;;;;;;6.20;4.53;;;;;;;21.21;26.88;100730.59;5109843;28;20059;-70
2022/01/19 00:11:07;;;;;;;4.78;3.92;;;;;;;21.19;27.02;100725.38;5109884;28;20082;-70
2022/01/19 00:13:32;;;;;;;6.22;4.47;;;;;;;21.17;26.78;100727.69;5109528;28;20036;-70
2022/01/19 00:15:57;;;;;;;5.25;3.90;;;;;;;21.17;26.79;100736.84;5109737;28;20127;-61
2022/01/19 00:18:25;;;;;;;6.10;4.60;;;;;;;21.16;26.88;100751.94;5109753;28;20126;-61
2022/01/19 00:20:52;;;;;;;6.18;4.45;;;;;;;21.15;26.67;100757.84;5109810;28;20061;-69
2022/01/19 00:23:18;;;;;;;6.13;4.45;;;;;;;21.14;26.91;100754.22;5109687;28;20043;-70
2022/01/19 00:25:46;;;;;;;6.20;4.57;;;;;;;21.15;26.77;100757.84;5109565;28;20127;-71
2022/01/19 00:28:12;;;;;;;5.63;4.30;;;;;;;21.13;26.88;100763.72;5109409;28;20128;-71
2022/01/19 00:30:38;;;;;;;5.10;3.95;;;;;;;21.14;26.64;100770.09;5109491;28;20142;-71
2022/01/19 00:33:04;;;;;;;5.45;4.13;;;;;;;21.13;26.79;100768.47;5109558;28;20484;-62
2022/01/19 00:35:29;;;;;;;5.97;4.22;;;;;;;21.11;26.95;100757.69;5109289;28;20048;-62
2022/01/19 00:37:55;;;;;;;5.90;4.22;;;;;;;21.12;26.88;100745.41;5109166;28;20048;-62
2022/01/19 00:40:20;;;;;;;6.05;4.47;;;;;;;21.11;26.96;100752.13;5109235;28;20422;-62
2022/01/19 00:42:47;;;;;;;5.97;4.25;;;;;;;21.10;26.88;100749.69;5109150;28;20052;-62
2022/01/19 00:45:14;;;;;;;5.72;4.22;;;;;;;21.10;26.97;100752.50;5109163;28;20035;-62
2022/01/19 00:47:40;;;;;;;6.20;4.70;;;;;;;21.10;26.96;100752.50;5089507;28;20401;-71
2022/01/19 00:50:08;;;;;;;5.63;4.13;;;;;;;21.08;26.93;100749.25;5109147;28;20058;-70
2022/01/19 00:52:35;;;;;;;5.00;3.75;;;;;;;21.08;26.66;100749.25;5108451;28;20056;-71
2022/01/19 00:55:03;;;;;;;4.90;3.60;;;;;;;21.08;26.86;100738.13;5108980;28;20043;-71
2022/01/19 00:57:29;;;;;;;5.10;3.88;;;;;;;21.07;26.89;100737.28;5109076;28;20047;-69
2022/01/19 00:59:55;;;;;;;5.15;4.00;;;;;;;21.07;26.90;100726.16;5109185;28;20513;-69
2022/01/19 01:02:20;;;;;;;4.70;3.60;;;;;;;21.05;26.61;100717.34;5107679;28;20036;-68
2022/01/19 01:04:46;;;;;;;5.95;4.35;;;;;;;21.06;26.91;100709.81;5108819;28;20051;-67
2022/01/19 01:07:12;;;;;;;5.32;3.97;;;;;;;21.05;27.02;100699.84;5108751;28;20051;-68
2022/01/19 01:09:37;;;;;;;5.30;4.10;;;;;;;21.04;26.90;100704.59;5108991;28;20096;-68
2022/01/19 01:12:19;;;;;;;5.50;4.03;;;;;;;21.04;26.52;100718.50;5108682;28;20105;-68
2022/01/19 01:20:13;;;;;;;5.32;3.85;;;;;;;21.04;26.76;100742.72;5109216;28;20113;-60
2022/01/19 01:22:40;;;;;;;5.28;4.00;;;;;;;21.02;27.01;100751.44;5109153;28;20071;-61
2022/01/19 01:25:06;;;;;;;5.70;4.00;;;;;;;21.01;26.69;100749.81;5109208;28;20035;-61
2022/01/19 01:27:32;;;;;;;5.10;3.75;;;;;;;21.02;26.77;100753.41;5108866;28;20031;-61
2022/01/19 01:29:57;;;;;;;5.85;3.97;;;;;;;21.02;26.68;100745.88;5108985;28;20043;-61
2022/01/19 01:32:23;;;;;;;5.07;3.95;;;;;;;21.02;26.87;100745.06;5108948;28;20042;-61
2022/01/19 01:34:50;;;;;;;4.82;3.75;;;;;;;21.01;26.83;100746.22;5109051;28;20047;-61
2022/01/19 01:37:16;;;;;;;4.82;3.80;;;;;;;21.02;26.67;100728.38;5108846;28;20514;-61
2022/01/19 01:39:42;;;;;;;5.03;3.70;;;;;;;21.00;26.94;100727.88;5108823;28;20468;-61
2022/01/19 01:42:12;;;;;;;5.65;3.90;;;;;;;20.99;26.88;100729.03;5108856;28;20563;-61
2022/01/19 01:44:39;;;;;;;5.25;3.78;;;;;;;20.99;26.63;100724.28;5108765;28;20055;-61
2022/01/19 01:47:06;;;;;;;5.32;4.03;;;;;;;20.98;26.65;100724.63;5108509;28;20101;-61
2022/01/19 01:55:03;;;;;;;4.60;3.38;;;;;;;20.98;26.85;100719.88;5109002;28;20066;-61
2022/01/19 01:57:28;;;;;;;4.85;3.90;;;;;;;20.98;26.73;100719.06;5108911;28;20138;-60
2022/01/19 01:59:54;;;;;;;4.97;3.80;;;;;;;20.97;26.51;100709.91;5108671;28;20131;-61
2022/01/19 02:02:19;;;;;;;4.68;3.58;;;;;;;20.98;26.61;100716.28;5108571;28;20047;-61
2022/01/19 02:04:45;;;;;;;5.15;3.97;;;;;;;20.98;26.64;100719.06;5108785;28;20058;-61
2022/01/19 02:09:40;;;;;;;5.07;3.70;;;;;;;20.97;26.75;100704.34;5108686;28;20040;-70
2022/01/19 02:23:18;;;;;;;4.72;3.60;;;;;;;20.95;26.78;100703.09;5111838;28;20592;-69
2022/01/19 02:25:45;;;;;;;4.78;3.65;;;;;;;20.93;26.59;100700.63;5111645;28;20043;-70
2022/01/19 02:41:37;;;;;;;4.10;3.13;;;;;;;21.11;26.45;100684.56;5111691;28;20403;-61
2022/01/19 02:44:04;;;;;;;4.60;3.22;;;;;;;21.10;26.46;100691.28;5111658;28;20449;-62
2022/01/19 02:49:08;;;;;;;4.30;3.20;;;;;;;21.09;26.57;100692.44;5111389;28;20088;-62
2022/01/19 02:49:24;;;;;;;4.75;3.38;;;;;;;21.09;26.58;100689.66;5111416;28;20067;-62
2022/01/19 02:51:52;;;;;;;4.25;3.47;;;;;;;21.08;26.57;100688.03;5111465;28;20078;-62
2022/01/19 02:54:23;;;;;;;4.60;3.35;;;;;;;21.06;26.58;100679.22;5111451;28;20040;-62
2022/01/19 02:56:52;;;;;;;4.55;3.33;;;;;;;21.05;26.53;100674.81;5111482;28;20100;-62
2022/01/19 02:59:38;;;;;;;4.35;3.13;;;;;;;21.04;26.58;100676.78;5111390;28;20068;-62
2022/01/19 03:10:16;;;;;;;5.65;3.50;;;;;;;21.00;26.59;100681.41;5111281;28;20081;-62
2022/01/19 03:12:42;;;;;;;4.75;3.50;;;;;;;20.98;26.36;100682.91;5111067;28;20641;-62
2022/01/19 03:15:10;;;;;;;4.55;3.65;;;;;;;20.97;26.42;100682.09;5111137;28;20044;-70
2022/01/19 03:17:35;;;;;;;4.85;3.30;;;;;;;20.98;26.56;100683.72;5110990;28;20092;-70
2022/01/19 03:20:00;;;;;;;4.80;3.40;;;;;;;20.98;26.44;100685.69;5110925;28;20480;-70
2022/01/19 03:22:34;;;;;;;4.65;3.47;;;;;;;20.96;26.39;100683.25;5110900;28;20040;-70
2022/01/19 03:25:00;;;;;;;4.63;3.63;;;;;;;20.98;26.42;100677.34;5110388;28;20537;-70
2022/01/19 03:27:25;;;;;;;4.45;3.35;;;;;;;20.97;26.32;100678.50;5111102;28;20048;-71
2022/01/19 03:29:51;;;;;;;4.80;3.42;;;;;;;20.97;26.58;100686.84;5111240;28;20457;-70
2022/01/19 03:32:16;;;;;;;4.25;3.00;;;;;;;20.97;26.31;100681.28;5111064;28;20047;-71
2022/01/19 03:34:41;;;;;;;4.82;3.60;;;;;;;20.95;26.60;100687.19;5110896;28;20048;-71
2022/01/19 03:37:07;;;;;;;4.95;3.60;;;;;;;20.96;26.42;100679.66;5111401;28;20075;-62
2022/01/19 03:39:34;;;;;;;4.78;3.70;;;;;;;20.96;26.49;100676.88;5111122;28;20055;-62
2022/01/19 03:41:59;;;;;;;4.90;3.40;;;;;;;20.95;26.32;100676.06;5111014;28;20047;-62
2022/01/19 03:44:26;;;;;;;4.78;3.53;;;;;;;20.94;26.33;100670.88;5110870;28;20047;-62
2022/01/19 03:47:00;;;;;;;5.30;3.88;;;;;;;20.95;26.24;100675.28;5106884;28;20104;-62
2022/01/19 03:49:28;;;;;;;5.57;3.47;;;;;;;20.94;26.29;100670.88;5090055;28;20044;-62
2022/01/19 03:51:59;;;;;;;4.47;3.30;;;;;;;20.93;26.21;100660.88;5090374;28;20051;-62
2022/01/19 03:54:29;;;;;;;4.85;3.55;;;;;;;20.92;26.32;100668.41;5089837;28;20066;-62
2022/01/19 03:56:55;;;;;;;4.63;3.50;;;;;;;20.92;26.38;100662.03;5089751;28;20431;-62
2022/01/19 03:59:21;;;;;;;5.20;3.50;;;;;;;20.93;26.46;100669.22;5089627;28;20036;-62
2022/01/19 04:01:46;;;;;;;4.32;3.35;;;;;;;20.92;26.27;100673.97;5071509;28;20657;-62
2022/01/19 04:09:25;;;;;;;4.70;3.30;;;;;;;20.89;26.22;100650.44;5104487;28;20074;-62
2022/01/19 04:11:52;;;;;;;4.57;3.35;;;;;;;20.89;26.43;100650.44;5110057;28;20047;-62
2022/01/19 04:14:25;;;;;;;4.35;3.25;;;;;;;20.90;26.22;100662.38;5109748;28;20051;-62
2022/01/19 04:16:56;;;;;;;4.50;3.13;;;;;;;20.88;26.27;100661.94;5109987;28;20047;-62
2022/01/19 04:19:27;;;;;;;4.53;3.50;;;;;;;20.88;26.32;100651.63;5110038;28;20113;-62
2022/01/19 04:21:54;;;;;;;4.82;3.45;;;;;;;20.87;26.44;100650.00;5109812;28;20043;-62
2022/01/19 04:24:20;;;;;;;4.30;3.30;;;;;;;20.88;26.43;100646.06;5109983;28;20405;-62
2022/01/19 04:26:50;;;;;;;4.10;3.22;;;;;;;20.87;26.29;100650.00;5109983;28;20130;-62
2022/01/19 04:29:15;;;;;;;4.88;3.60;;;;;;;20.86;26.14;100642.00;5109719;28;20415;-62
2022/01/19 04:31:41;;;;;;;4.57;3.42;;;;;;;20.87;26.33;100643.63;5109540;28;20592;-62
2022/01/19 04:34:07;;;;;;;5.05;3.28;;;;;;;20.86;26.09;100637.25;5109452;28;20052;-63
2022/01/19 04:37:09;;;;;;;4.10;3.00;;;;;;;20.85;26.22;100626.44;5108364;28;20091;-62
2022/01/19 04:44:58;;;;;;;4.85;3.67;;;;;;;20.86;25.98;100625.31;5109516;28;20476;-62
2022/01/19 05:03:57;;;;;;;4.47;3.38;;;;;;;20.83;26.11;100624.03;5109345;28;20127;-71
2022/01/19 05:06:24;;;;;;;4.18;3.25;;;;;;;20.81;26.10;100618.00;5109346;28;20058;-71
2022/01/19 05:08:57;;;;;;;4.50;3.20;;;;;;;20.82;26.30;100613.25;5109515;28;20039;-71
2022/01/19 05:14:07;;;;;;;4.60;2.88;;;;;;;20.81;26.26;100614.41;5109615;28;20050;-71
2022/01/19 05:16:32;;;;;;;4.68;3.47;;;;;;;20.82;26.21;100616.03;5109369;28;20126;-71
2022/01/19 05:18:58;;;;;;;4.80;3.65;;;;;;;20.81;26.08;100612.44;5109056;28;20403;-70
2022/01/19 05:21:24;;;;;;;4.55;3.30;;;;;;;20.81;26.38;100612.44;5109144;28;20051;-62
2022/01/19 05:23:49;;;;;;;4.60;3.38;;;;;;;20.80;26.26;100613.59;5109040;28;20477;-70
2022/01/19 05:26:15;;;;;;;4.80;3.30;;;;;;;20.80;26.17;100605.25;5108924;28;20043;-71
2022/01/19 05:28:40;;;;;;;4.80;3.53;;;;;;;20.80;26.31;100604.44;5109288;28;20040;-59
2022/01/19 05:31:06;;;;;;;4.15;3.10;;;;;;;20.80;26.09;100598.88;5109011;28;20046;-59
2022/01/19 05:33:31;;;;;;;5.10;3.13;;;;;;;20.80;26.21;100601.66;5108083;28;20059;-60
2022/01/19 05:35:57;;;;;;;4.15;3.10;;;;;;;20.82;26.10;100599.34;5107411;28;20071;-59
2022/01/19 05:38:22;;;;;;;4.85;3.28;;;;;;;20.81;26.15;100592.16;5108529;28;20043;-60
2022/01/19 05:40:48;;;;;;;4.15;3.10;;;;;;;20.80;25.94;100588.56;5108868;28;20039;-61
2022/01/19 05:43:14;;;;;;;4.35;3.30;;;;;;;20.81;26.03;100592.97;5108986;28;20035;-60
2022/01/19 05:45:39;;;;;;;5.60;3.75;;;;;;;20.81;26.07;100589.38;5108772;28;20048;-60
2022/01/19 05:48:06;;;;;;;3.90;2.90;;;;;;;20.82;25.99;100586.25;5111363;28;20039;-61
2022/01/19 05:50:32;;;;;;;4.60;3.38;;;;;;;20.82;26.25;100589.03;5112433;28;20645;-61
2022/01/19 05:52:58;;;;;;;4.18;2.95;;;;;;;20.83;26.16;100582.31;5112398;28;20050;-61
2022/01/19 05:55:23;;;;;;;4.18;3.10;;;;;;;20.84;25.92;100589.50;5112349;28;20051;-60
2022/01/19 05:57:49;;;;;;;4.30;3.17;;;;;;;20.84;26.01;100595.06;5112195;28;20054;-61
2022/01/19 06:00:14;;;;;;;4.32;2.85;;;;;;;20.84;26.17;100597.81;5111977;28;20051;-61
2022/01/19 06:02:40;;;;;;;3.65;2.70;;;;;;;20.82;26.07;100591.81;5111173;28;20070;-61
2022/01/19 06:05:06;;;;;;;4.45;3.00;;;;;;;20.86;26.17;100598.31;5112173;28;20032;-62
2022/01/19 06:07:40;;;;;;;4.47;3.13;;;;;;;20.88;26.29;100590.44;5109731;28;20043;-60
2022/01/19 06:10:09;;;;;;;4.22;2.92;;;;;;;20.90;26.32;100584.50;5111470;28;20040;-61
2022/01/19 06:12:35;;;;;;;6.50;3.15;;;;;;;20.91;26.07;100588.91;5111196;28;20047;-60
2022/01/19 06:15:01;;;;;;;3.72;2.70;;;;;;;20.91;26.12;100585.31;5111538;28;20139;-60
2022/01/19 06:17:27;;;;;;;3.97;2.65;;;;;;;20.90;26.14;100576.16;5110922;28;20509;-60
2022/01/19 06:19:52;;;;;;;3.58;2.53;;;;;;;20.91;26.33;100582.53;5110137;28;20048;-60
2022/01/19 06:22:18;;;;;;;4.43;2.55;;;;;;;20.91;26.30;100582.53;5102994;28;20512;-62
2022/01/19 06:24:44;;;;;;;3.70;2.90;;;;;;;20.91;26.22;100585.31;5102072;28;20032;-60
2022/01/19 06:27:11;;;;;;;4.05;2.80;;;;;;;20.91;25.97;100585.31;5111452;28;20082;-60
2022/01/19 06:29:37;;;;;;;3.70;2.70;;;;;;;20.92;25.99;100592.50;5111429;28;20531;-60
2022/01/19 06:32:03;;;;;;;3.60;2.70;;;;;;;20.91;26.17;100579.75;5111408;28;20052;-60
2022/01/19 06:34:29;;;;;;;4.78;2.92;;;;;;;20.89;26.03;100575.38;5111062;28;20051;-60
2022/01/19 06:36:54;;;;;;;3.80;2.70;;;;;;;20.90;26.08;100578.94;5111519;28;20035;-60
2022/01/19 06:39:20;;;;;;;3.45;2.60;;;;;;;20.91;26.08;100588.91;5111606;28;20075;-60
2022/01/19 06:41:46;;;;;;;3.50;2.53;;;;;;;20.89;25.94;100575.38;5111492;28;20039;-60
2022/01/19 06:44:13;;;;;;;3.67;2.70;;;;;;;20.89;26.15;100578.16;5111318;28;20056;-60
2022/01/19 06:46:40;;;;;;;4.35;3.13;;;;;;;20.92;26.23;100578.59;5111067;28;20470;-60
2022/01/19 06:49:05;;;;;;;4.00;2.90;;;;;;;20.89;26.06;100575.38;5111415;28;20054;-60
2022/01/19 06:51:31;;;;;;;3.50;2.80;;;;;;;20.90;25.95;100567.84;5110915;28;20043;-60
2022/01/19 06:53:56;;;;;;;4.10;2.95;;;;;;;20.89;26.17;100572.59;5111067;28;20039;-60
2022/01/19 06:56:22;;;;;;;4.15;3.00;;;;;;;20.91;26.20;100572.22;5111326;28;20121;-60
2022/01/19 06:58:48;;;;;;;3.80;2.92;;;;;;;20.91;25.90;100585.31;5110288;28;20043;-60
2022/01/19 07:01:13;;;;;;;4.35;3.10;;;;;;;20.91;25.94;100576.97;5109452;28;20028;-60
2022/01/19 07:03:39;;;;;;;4.18;3.13;;;;;;;20.94;26.02;100579.91;5100924;28;20044;-60
2022/01/19 07:06:04;;;;;;;4.10;2.97;;;;;;;21.12;25.80;100577.69;5090548;28;20040;-60
2022/01/19 07:08:30;;;;;;;3.78;3.00;;;;;;;21.15;25.70;100574.22;5090809;28;20503;-60
2022/01/19 07:10:55;;;;;;;4.00;2.90;;;;;;;21.17;25.62;100578.25;5090828;28;20105;-60
2022/01/19 07:13:21;;;;;;;4.28;3.10;;;;;;;21.18;25.74;100581.84;5090524;28;20040;-60
2022/01/19 07:15:47;;;;;;;3.40;2.60;;;;;;;21.17;25.63;100585.78;5090566;28;20052;-60
2022/01/19 07:18:13;;;;;;;4.13;2.83;;;;;;;21.14;25.90;100583.69;5090672;28;20070;-60
2022/01/19 07:20:38;;;;;;;3.45;2.70;;;;;;;21.13;25.76;100580.09;5090643;28;20038;-60
2022/01/19 07:23:03;;;;;;;3.83;2.65;;;;;;;21.12;25.87;100586.03;5090600;28;20135;-60
2022/01/19 07:25:30;;;;;;;3.58;2.65;;;;;;;21.09;25.60;100586.72;5090704;28;20047;-60
2022/01/19 07:27:56;;;;;;;3.55;2.60;;;;;;;21.09;25.73;100592.28;5090577;28;20040;-60
2022/01/19 07:30:22;;;;;;;3.72;2.58;;;;;;;21.07;25.78;100584.28;5090419;28;20058;-60
2022/01/19 07:32:49;;;;;;;3.20;2.50;;;;;;;21.08;25.80;100587.91;5090328;28;20044;-60
2022/01/19 07:35:15;;;;;;;3.92;2.72;;;;;;;21.06;25.70;100579.06;5090394;28;20104;-60
2022/01/19 07:37:41;;;;;;;4.50;2.90;;;;;;;21.05;25.76;100588.56;5090333;28;20127;-60
2022/01/19 07:40:08;;;;;;;4.13;3.10;;;;;;;21.05;25.54;100586.59;5090233;28;20127;-60
2022/01/19 07:42:33;;;;;;;3.97;2.92;;;;;;;21.05;25.76;100591.34;5090374;28;20093;-60
2022/01/19 07:44:59;;;;;;;4.07;2.95;;;;;;;21.03;25.57;100588.94;5090195;28;20036;-61
2022/01/19 07:47:27;;;;;;;3.40;2.88;;;;;;;21.04;25.83;100592.53;5093316;28;20094;-60
2022/01/19 07:49:53;;;;;;;4.03;3.05;;;;;;;21.02;25.77;100592.88;5090886;28;20404;-61
2022/01/19 07:52:19;;;;;;;4.88;3.03;;;;;;;20.96;26.09;100596.22;5094844;28;20507;-65
2022/01/19 07:54:44;;;;;;;4.28;2.97;;;;;;;20.98;26.00;100602.25;5093970;28;20044;-59
2022/01/19 07:57:10;;;;;;;7.50;2.88;;;;;;;20.99;26.31;100596.31;5093581;28;20053;-60
2022/01/19 07:59:35;;;;;;;4.13;3.10;;;;;;;21.01;26.21;100590.44;5089176;28;20070;-59
2022/01/19 08:02:01;;;;;;;5.45;2.95;;;;;;;21.01;26.29;100593.22;5102065;28;20039;-59
2022/01/19 08:04:26;;;;;;;4.82;2.95;;;;;;;20.99;26.12;100587.19;5091591;28;20048;-59
2022/01/19 08:06:55;;;;;;;30.85;7.38;;;;;;;20.96;26.09;100591.47;5094702;28;20058;-59
2022/01/19 08:09:22;;;;;;;32.90;8.48;;;;;;;20.92;26.28;100587.75;5089046;28;20048;-64
2022/01/19 08:11:47;;;;;;;27.83;6.70;;;;;;;20.90;26.50;100590.06;5082524;28;20076;-60
2022/01/19 08:14:13;;;;;;;16.02;5.45;;;;;;;20.93;26.73;100588.56;5091507;28;20048;-61
2022/01/19 08:16:38;;;;;;;17.65;5.60;;;;;;;20.90;26.77;100592.84;5092887;28;20048;-61
2022/01/19 08:19:04;;;;;;;11.55;4.90;;;;;;;20.91;26.81;100593.66;5094997;28;20101;-61
2022/01/19 08:21:29;;;;;;;12.80;4.65;;;;;;;20.89;26.66;100596.81;5085592;28;20052;-60
2022/01/19 08:23:55;;;;;;;21.10;12.05;;;;;;;20.85;26.10;100602.22;5091797;28;20047;-59
2022/01/19 08:26:20;;;;;;;18.70;8.40;;;;;;;20.79;26.47;100597.28;5088520;28;20105;-60
2022/01/19 08:28:46;;;;;;;14.48;8.15;;;;;;;20.77;26.44;100600.38;5083738;28;20048;-60
2022/01/19 08:31:12;;;;;;;19.65;8.70;;;;;;;20.77;26.42;100597.59;5083929;28;20490;-60
2022/01/19 08:33:37;;;;;;;22.15;6.88;;;;;;;20.76;26.43;100604.31;5087481;28;20104;-59
2022/01/19 08:36:03;;;;;;;10.80;6.47;;;;;;;20.76;26.73;100598.75;5091156;28;20059;-59
2022/01/19 08:38:29;;;;;;;15.20;6.10;;;;;;;20.75;26.87;100599.91;5088961;28;20048;-59
2022/01/19 08:40:54;;;;;;;9.27;6.18;;;;;;;20.78;26.86;100592.84;5085389;28;20056;-58
2022/01/19 08:43:20;;;;;;;20.42;6.45;;;;;;;20.79;26.85;100594.50;5090183;28;20048;-60
2022/01/19 08:45:45;;;;;;;9.80;5.90;;;;;;;20.79;27.19;100595.28;5092828;28;20047;-61
2022/01/19 08:48:11;;;;;;;12.13;5.28;;;;;;;20.81;27.21;100606.06;5091653;28;20135;-59
2022/01/19 08:50:36;;;;;;;13.45;5.65;;;;;;;20.85;27.26;100615.31;5085194;28;20040;-61
2022/01/19 08:53:03;;;;;;;9.27;5.40;;;;;;;20.86;27.33;100615.00;5091051;28;20856;-59
2022/01/19 08:55:28;;;;;;;13.32;7.28;;;;;;;20.85;27.21;100612.53;5086104;28;20052;-58
2022/01/19 08:57:54;;;;;;;13.23;6.45;;;;;;;20.88;27.52;100612.69;5085627;28;20062;-59
2022/01/19 09:00:21;;;;;;;10.75;5.97;;;;;;;20.93;27.56;100619.16;5084088;28;20462;-60
2022/01/19 09:02:46;;;;;;;11.55;6.20;;;;;;;20.97;27.37;100620.09;5085580;28;20427;-61
2022/01/19 09:05:12;;;;;;;10.35;6.18;;;;;;;20.99;27.56;100615.00;5086752;28;20054;-62
2022/01/19 09:07:38;;;;;;;9.82;5.75;;;;;;;21.00;27.72;100619.38;5090770;28;20044;-58
2022/01/19 09:10:07;;;;;;;12.65;6.50;;;;;;;20.99;27.58;100617.78;5085273;28;20078;-58
2022/01/19 09:12:34;;;;;;;9.50;6.07;;;;;;;21.00;27.62;100624.94;5089625;28;20078;-58
2022/01/19 09:14:59;;;;;;;8.93;5.80;;;;;;;21.01;27.72;100621.03;5089515;28;20204;-58
2022/01/19 09:17:25;;;;;;;10.00;5.13;;;;;;;21.02;27.46;100622.66;5102803;28;20475;-59
2022/01/19 09:19:50;;;;;;;10.43;5.82;;;;;;;21.02;27.55;100625.44;5104302;28;20496;-58
2022/01/19 09:22:16;;;;;;;10.40;5.80;;;;;;;21.02;27.29;100625.44;5095282;28;20122;-58
2022/01/19 09:24:42;;;;;;;18.10;6.40;;;;;;;21.01;27.43;100632.97;5103014;28;20048;-58
2022/01/19 09:27:08;;;;;;;10.77;6.25;;;;;;;20.98;27.02;100627.28;5086273;28;20507;-58
2022/01/19 09:29:38;;;;;;;13.55;6.35;;;;;;;20.99;27.29;100628.91;5099513;28;20585;-58
2022/01/19 09:32:08;;;;;;;12.63;6.20;;;;;;;20.98;27.19;100625.31;5102519;28;20633;-58
2022/01/19 09:34:34;;;;;;;11.43;5.68;;;;;;;20.98;26.99;100618.94;5097563;28;20071;-58
2022/01/19 09:36:59;;;;;;;12.07;6.25;;;;;;;20.96;27.12;100624.84;5099671;28;20075;-58
2022/01/19 09:39:26;;;;;;;9.88;5.47;;;;;;;20.95;27.07;100623.22;5092420;28;20047;-58
2022/01/19 09:41:52;;;;;;;11.02;5.43;;;;;;;20.96;27.32;100630.41;5098397;28;20050;-58
2022/01/19 09:44:23;;;;;;;11.95;6.00;;;;;;;20.96;26.91;100630.41;5101116;28;20039;-58
2022/01/19 09:46:49;;;;;;;11.02;5.80;;;;;;;20.98;27.20;100638.41;5105093;28;20044;-59
2022/01/19 09:49:19;;;;;;;9.10;5.20;;;;;;;20.99;27.08;100634.47;5086630;28;20913;-58
2022/01/19 09:51:47;;;;;;;11.48;5.57;;;;;;;20.99;27.38;100629.72;5086656;28;20084;-59
2022/01/19 09:54:20;;;;;;;9.98;5.53;;;;;;;21.00;27.55;100631.31;5087153;28;20051;-58
2022/01/19 09:56:47;;;;;;;9.80;4.80;;;;;;;21.00;27.52;100627.72;5086593;28;20056;-65
2022/01/19 09:59:14;;;;;;;10.85;5.15;;;;;;;21.00;27.60;100625.75;5089581;28;20155;-64
2022/01/19 10:02:07;;;;;;;8.70;4.60;;;;;;;21.00;27.70;100631.31;5088317;28;20698;-62
2022/01/19 10:04:35;;;;;;;9.68;4.70;;;;;;;21.03;27.77;100624.28;5070357;28;20040;-63
2022/01/19 10:07:13;;;;;;;7.47;4.60;;;;;;;21.01;27.40;100621.03;5089763;28;20048;-62
2022/01/19 10:10:05;;;;;;;6.57;4.07;;;;;;;21.01;27.71;100623.81;5086354;28;20051;-58
2022/01/19 10:18:19;;;;;;;7.72;4.57;;;;;;;21.05;27.36;100608.03;5082702;28;20054;-58
2022/01/19 10:20:48;;;;;;;6.80;4.18;;;;;;;21.11;27.36;100603.88;5088118;28;20051;-58
2022/01/19 10:23:36;;;;;;;6.38;4.32;;;;;;;21.14;27.08;100592.84;5085514;28;20056;-58
2022/01/19 10:26:04;;;;;;;5.55;3.70;;;;;;;21.18;27.38;100595.75;5081777;28;20131;-58
2022/01/19 10:28:29;;;;;;;7.03;4.20;;;;;;;21.17;27.38;100591.34;5087083;28;20056;-59
2022/01/19 10:30:55;;;;;;;7.88;4.43;;;;;;;21.17;27.15;100591.34;5087822;28;20122;-58
2022/01/19 10:33:21;;;;;;;5.95;4.03;;;;;;;21.17;27.21;100585.78;5084198;28;20130;-58
2022/01/19 10:35:48;;;;;;;6.15;4.07;;;;;;;21.18;27.15;100579.06;5092505;28;20074;-58
2022/01/19 10:38:29;;;;;;;5.72;3.75;;;;;;;21.18;27.03;100581.84;5091204;28;20105;-57
2022/01/19 10:40:54;;;;;;;6.38;4.07;;;;;;;21.21;26.98;100583.09;5089852;28;20051;-58
2022/01/19 10:43:40;;;;;;;8.60;4.00;;;;;;;21.23;26.97;100575.25;5090613;28;20841;-58
2022/01/19 10:46:30;;;;;;;5.70;3.75;;;;;;;21.24;27.12;100565.72;5087644;28;20037;-58
2022/01/19 10:49:00;;;;;;;6.53;4.13;;;;;;;21.25;26.85;100565.38;5088774;28;20040;-58
2022/01/19 10:51:30;;;;;;;5.60;3.95;;;;;;;21.26;27.25;100561.44;5098006;28;20567;-57
2022/01/19 10:54:16;;;;;;;5.68;4.05;;;;;;;21.27;27.10;100554.69;5100194;28;20059;-58
2022/01/19 10:56:44;;;;;;;6.30;4.05;;;;;;;21.26;27.50;100547.50;5102869;28;20661;-58
2022/01/19 10:59:13;;;;;;;5.80;4.13;;;;;;;21.29;27.63;100544.09;5106252;28;20064;-59
2022/01/19 11:01:41;;;;;;;6.95;4.45;;;;;;;21.30;27.58;100537.34;5100278;28;20043;-57
2022/01/19 11:04:25;;;;;;;5.72;3.97;;;;;;;21.30;27.55;100526.22;5105270;28;20047;-64
2022/01/19 11:06:59;;;;;;;5.72;4.00;;;;;;;21.32;27.80;100518.31;5097538;28;20051;-64
2022/01/19 11:09:27;;;;;;;9.13;4.28;;;;;;;21.34;27.76;100517.97;5084447;28;20127;-61
2022/01/19 11:11:56;;;;;;;7.68;4.60;;;;;;;21.34;27.66;100517.97;5096062;28;20177;-62
2022/01/19 11:14:24;;;;;;;9.82;4.57;;;;;;;21.34;27.57;100512.41;5102138;28;20047;-61
2022/01/19 11:16:51;;;;;;;7.90;5.63;;;;;;;21.28;27.39;100502.66;5100274;28;20059;-61
2022/01/19 11:19:17;;;;;;;9.80;5.60;;;;;;;21.30;27.46;100503.16;5099435;28;20047;-62
2022/01/19 11:22:17;;;;;;;16.92;6.43;;;;;;;21.30;27.35;100492.00;5101270;28;20047;-62
2022/01/19 11:25:07;;;;;;;9.95;5.35;;;;;;;21.31;27.32;100491.66;5101826;28;20051;-61
2022/01/19 11:27:43;;;;;;;8.40;4.82;;;;;;;21.33;27.46;100485.72;5099339;28;20125;-61
2022/01/19 11:30:17;;;;;;;7.68;5.10;;;;;;;21.33;27.41;100475.41;5105031;28;20400;-62
2022/01/19 11:32:44;;;;;;;7.75;4.60;;;;;;;21.35;27.47;100477.84;5091079;28;20082;-62
2022/01/19 11:35:33;;;;;;;7.95;4.30;;;;;;;21.34;27.25;100459.53;5095604;28;20054;-62
2022/01/19 11:37:59;;;;;;;6.95;4.30;;;;;;;21.38;27.04;100464.03;5092234;28;20535;-62
2022/01/19 11:40:34;;;;;;;7.68;4.55;;;;;;;21.37;27.17;100445.72;5092270;28;20066;-61
2022/01/19 11:43:23;;;;;;;6.10;4.10;;;;;;;21.39;27.14;100439.78;5093285;28;20392;-61
2022/01/19 11:45:49;;;;;;;5.50;4.20;;;;;;;21.41;27.07;100432.69;5092534;28;20395;-62
2022/01/19 11:48:18;;;;;;;7.95;4.05;;;;;;;21.39;27.47;100435.03;5105719;28;20115;-61
2022/01/19 11:50:46;;;;;;;7.18;4.03;;;;;;;21.42;27.51;100419.59;5097035;28;20090;-61
2022/01/19 11:53:12;;;;;;;5.57;3.67;;;;;;;21.45;27.48;100418.09;5094263;28;20052;-62
2022/01/19 11:55:59;;;;;;;6.95;3.80;;;;;;;21.46;27.42;100420.53;5103462;28;20040;-61
2022/01/19 11:58:25;;;;;;;6.18;3.90;;;;;;;21.49;27.40;100414.22;5108834;28;20078;-63
2022/01/19 12:00:55;;;;;;;7.03;3.63;;;;;;;21.50;27.63;100417.81;5102785;28;20077;-63
2022/01/19 12:03:21;;;;;;;5.68;3.80;;;;;;;21.53;27.40;100408.78;5107126;28;20043;-63
2022/01/19 12:05:50;;;;;;;5.45;3.50;;;;;;;21.53;27.58;100404.00;5106485;28;20047;-63
2022/01/19 12:08:30;;;;;;;5.22;3.45;;;;;;;21.53;27.63;100401.22;5093612;28;20055;-63
2022/01/19 12:11:16;;;;;;;4.22;3.17;;;;;;;21.55;27.64;100386.94;5098943;28;20469;-63
2022/01/19 12:16:25;;;;;;;4.78;3.15;;;;;;;21.57;27.36;100381.81;5108260;28;20054;-61
2022/01/19 12:19:07;;;;;;;4.25;3.05;;;;;;;21.57;27.60;100376.25;5104434;28;20039;-61
2022/01/19 12:21:32;;;;;;;4.22;3.00;;;;;;;21.57;27.36;100365.13;5109087;28;20093;-61
2022/01/19 12:24:13;;;;;;;4.80;2.90;;;;;;;21.57;27.39;100365.13;5095285;28;20055;-61
2022/01/19 12:27:06;;;;;;;4.28;3.10;;;;;;;21.56;27.40;100355.16;5094867;28;20401;-61
2022/01/19 12:29:37;;;;;;;;;;;;;;;21.61;27.18;100340.97;5095107;28;20101;-61
2022/01/19 12:32:29;;;;;;;3.90;2.83;;;;;;;21.57;27.02;100329.75;5098591;28;19920;-62
2022/01/19 12:34:56;;;;;;;4.95;3.10;;;;;;;21.55;26.96;100322.91;5098911;28;20412;-61
2022/01/19 12:37:34;;;;;;;4.05;2.83;;;;;;;21.54;27.23;100310.97;5101015;28;20048;-62
2022/01/19 12:40:27;;;;;;;4.10;2.97;;;;;;;21.53;27.00;100305.78;5090792;28;20120;-62
2022/01/19 12:42:58;;;;;;;4.77;3.20;;;;;;;21.53;27.15;100300.22;5105753;28;20050;-61
2022/01/19 12:45:29;;;;;;;4.40;2.88;;;;;;;21.52;27.05;100293.84;5090641;28;20322;-61
2022/01/19 12:48:05;;;;;;;8.23;2.83;;;;;;;21.53;27.06;100291.84;5103898;28;20138;-60
2022/01/19 12:50:46;;;;;;;4.03;2.90;;;;;;;21.52;27.08;100291.06;5088662;28;21294;-60
2022/01/19 12:53:24;;;;;;;4.32;3.15;;;;;;;21.51;26.97;100288.63;5098099;28;20532;-64
2022/01/19 12:55:56;;;;;;;4.10;2.80;;;;;;;21.50;27.22;100282.22;5095508;28;20119;-59